Terminal Aerodrome Forecast
Issued by NWS Cleveland, OH

Home | Current Version | Previous Version | Graphics & Text | Print | Product List | Glossary On
Versions: 1 2 3 4 5 6 7 8 9 10 11 12 13 14 15 16
000
FTUS41 KCLE 271120
TAFERI
TAF
KERI 271120Z 2712/2812 19009KT P6SM VCTS SCT060CB BKN120
     FM271600 27012G18KT P6SM VCTS BKN050CB OVC100
     FM272300 27012KT P6SM SCT050=

USA.gov is the U.S. government's official web portal to all federal, state and local government web resources and services.